Nearby METAR Reports

 

KMTN - Baltimore/Martin, Maryland, USA
Distance from station: SSE 8mi, 13km
Updated: Sat, 13-Feb-2016 1:24am EST
Clear
Clear
 Wind from SW
Wind: SW 3 mph , 6 km/h
Temperature: 27°F , -3°C
Dew Point: 21°F , -6°C
Humidity: 80%
Barometer: 30.00 inHg , 1015.9 hPa
Clouds: Clear
Visibility: 10 miles , 16 km
2016/02/13 06:24 KMTN 130624Z AUTO 23003KT 10SM CLR M03/M06 A3000 RMK AO2
KDMH - Baltimore/Dwntwn, Maryland, USA
Distance from station: SW 12mi, 19km
Updated: Sat, 13-Feb-2016 12:54am EST

 
Temperature: 25°F , -4°C
Dew Point: 18°F , -8°C
Humidity: 74%
Barometer: 29.98 inHg , 1015.2 hPa
2016/02/13 05:54 KDMH 130554Z AUTO M04/M08 A2998 RMK AO1 SLP151 T10441083 11033 21044 56013
 
KBWI - Balto/Wash Intl, Maryland, USA
Distance from station: SSW 20mi, 33km
Updated: Sat, 13-Feb-2016 12:54am EST
Few Clouds
Few Clouds
 Wind from SW
Wind: SW 3 mph , 6 km/h
Temperature: 19°F , -7°C
Dew Point: 16°F , -9°C
Humidity: 86%
Barometer: 29.99 inHg , 1015.6 hPa
Clouds: Few Clouds
Visibility: 10 miles , 16 km
Cloud details: Few Clouds 9000 ft
2016/02/13 05:54 KBWI 130554Z 23003KT 10SM FEW090 M07/M09 A2999 RMK AO2 SLP156 60000 T10671094 11039 21067 58005
KDMW - Carroll Cnty, Maryland, USA
Distance from station: WNW 30mi, 48km
Updated: Sat, 13-Feb-2016 1:20am EST
Partly cloudy
Partly cloudy
 Wind from W
Wind: W 7 mph , 11 km/h
Temperature: 19°F , -7°C
Wind Chill: 10°F , -12°C
Dew Point: 16°F , -9°C
Humidity: 86%
Barometer: 29.93 inHg , 1013.5 hPa
Clouds: Partly cloudy
Visibility: 10 miles , 16 km
Cloud details: Partly cloudy 9000 ft
2016/02/13 06:20 KDMW 130620Z AUTO 27006KT 10SM SCT090 M07/M09 A2993 RMK AO2
 
KNAK - Annapolis/Naval, Maryland, USA
Distance from station: S 30mi, 48km
Updated: Sat, 13-Feb-2016 12:54am EST
Few Clouds
Few Clouds
 Wind from W
Wind: W 6 mph , 9 km/h
Temperature: 25°F , -4°C
Wind Chill: 18°F , -8°C
Dew Point: 16°F , -9°C
Humidity: 69%
Barometer: 30.00 inHg , 1015.9 hPa
Clouds: Few Clouds
Visibility: 10 miles , 16 km
Cloud details: Few Clouds 9000 ft
2016/02/13 05:54 KNAK 130554Z AUTO 27005KT 10SM FEW090 M04/M09 A3000 RMK AO2 SLP159 T10391089 11022 21039 58004
KW29 - Stevensville, Maryland, USA
Distance from station: SSE 31mi, 50km
Updated: Sat, 13-Feb-2016 1:23am EST

 Wind from WNW
Wind: WNW 3 mph , 6 km/h
Temperature: 28°F , -2°C
Dew Point: 18°F , -8°C
Humidity: 64%
Barometer: 29.99 inHg , 1015.6 hPa
Visibility: 10 miles , 16 km
2016/02/13 06:23 KW29 130623Z AUTO 29003KT 10SM M02/M08 A2999 RMK AO1
 
KCGS - College Park, Maryland, USA
Distance from station: SW 38mi, 61km
Updated: Sat, 13-Feb-2016 1:20am EST
Clear
Clear
 Wind from W
Wind: W 5 mph , 7 km/h
Temperature: 28°F , -2°C
Wind Chill: 22°F , -6°C
Dew Point: 19°F , -7°C
Humidity: 69%
Barometer: 29.99 inHg , 1015.6 hPa
Clouds: Clear
Visibility: 10 miles , 16 km
2016/02/13 06:20 KCGS 130620Z AUTO 28004KT 10SM CLR M02/M07 A2999 RMK AO1
KGAI - Gaithersburg, Maryland, USA
Distance from station: WSW 40mi, 65km
Updated: Sat, 13-Feb-2016 1:35am EST
Clear
Clear
 Wind from W
Wind: W 3 mph , 6 km/h
Temperature: 19°F , -7°C
Dew Point: 14°F , -10°C
Humidity: 79%
Barometer: 30.00 inHg , 1015.9 hPa
Clouds: Clear
Visibility: 10 miles , 16 km
2016/02/13 06:35 KGAI 130635Z AUTO 27003KT 10SM CLR M07/M10 A3000 RMK AO1
 
KTHV - York, Pennsylvania, USA
Distance from station: NNW 40mi, 65km
Updated: Sat, 13-Feb-2016 12:53am EST
Few Clouds
Few Clouds
 Wind from W
Wind: W 6 mph , 9 km/h
Temperature: 19°F , -7°C
Wind Chill: 11°F , -12°C
Dew Point: 12°F , -11°C
Humidity: 73%
Barometer: 29.94 inHg , 1013.9 hPa
Clouds: Few Clouds
Visibility: 10 miles , 16 km
Cloud details: Few Clouds 4300 ft
2016/02/13 05:53 KTHV 130553Z AUTO 26005KT 10SM FEW043 M07/M11 A2994 RMK AO2 SLP148 60000 T10721111 11067 21089 56010
KFDK - Frederick, Maryland, USA
Distance from station: W 47mi, 75km
Updated: Sat, 13-Feb-2016 1:20am EST
Clear
Clear
 Wind from W
Wind: W 5 mph , 7 km/h
Temperature: 23°F , -5°C
Wind Chill: 17°F , -8°C
Dew Point: 16°F , -9°C
Humidity: 74%
Barometer: 30.01 inHg , 1016.3 hPa
Clouds: Clear
Visibility: 10 miles , 16 km
2016/02/13 06:20 KFDK 130620Z AUTO 28004KT 10SM CLR M05/M09 A3001 RMK AO2
 
KESN - Easton/Newnam, Maryland, USA
Distance from station: SSE 48mi, 78km
Updated: Sat, 13-Feb-2016 1:22am EST
Clear
Clear
 Wind from NW
Wind: NW 8 mph , 13 km/h
Temperature: 28°F , -2°C
Wind Chill: 20°F , -7°C
Dew Point: 18°F , -8°C
Humidity: 64%
Barometer: 30.03 inHg , 1016.9 hPa
Clouds: Clear
Visibility: 10 miles , 16 km
2016/02/13 06:22 KESN 130622Z AUTO 31007KT 10SM CLR M02/M08 A3003 RMK AO2 T10241077
KDCA - Washington/Natl, Washington D.c., USA
Distance from station: SW 49mi, 79km
Updated: Sat, 13-Feb-2016 12:52am EST
Few Clouds
Few Clouds
 Wind from W
Wind: W 8 mph , 13 km/h
Temperature: 27°F , -3°C
Wind Chill: 19°F , -7°C
Dew Point: 18°F , -8°C
Humidity: 69%
Barometer: 30.01 inHg , 1016.3 hPa
Clouds: Few Clouds
Visibility: 10 miles , 16 km
Cloud details: Few Clouds 4000 ft
2016/02/13 05:52 KDCA 130552Z 28007KT 10SM FEW040 M03/M08 A3001 RMK AO2 SLP163 60000 T10281083 11017 21028 58004
 
KLNS - Lancaster, Pennsylvania, USA
Distance from station: N 49mi, 79km
Updated: Sat, 13-Feb-2016 1:20am EST
Freezing fog, Mostly cloudy
Freezing fog, Mostly cloudy
 Wind from calm
Wind: Calm
Temperature: 16°F , -9°C
Dew Point: 12°F , -11°C
Humidity: 86%
Barometer: 29.93 inHg , 1013.5 hPa
Summary: Freezing Fog
Clouds: Mostly cloudy
Visibility: 1/4 mile , 2 km
Cloud details: Mostly cloudy 4700 ft
2016/02/13 06:20 KLNS 130620Z AUTO 00000KT 1/4SM FZFG BKN047 M09/M11 A2993 RMK AO2 I1000 T10941106
KILG - Wilmington, Delaware, USA
Distance from station: ENE 50mi, 81km
Updated: Sat, 13-Feb-2016 12:51am EST
Overcast
Overcast
 Wind from W
Wind: W 8 mph , 13 km/h
Temperature: 21°F , -6°C
Wind Chill: 11°F , -12°C
Dew Point: 18°F , -8°C
Humidity: 86%
Barometer: 29.97 inHg , 1014.9 hPa
Clouds: Overcast
Visibility: 10 miles , 16 km
Cloud details: Overcast 9000 ft
2016/02/13 05:51 KILG 130551Z 26007KT 10SM OVC090 M06/M08 A2997 RMK AO2 SNE09 SLP150 P0000 60000 T10561083 11056 21056 58010